sensor_id;sensor_type;location;lat;lon;timestamp;pressure;altitude;pressure_sealevel;temperature;humidity
20023;BME280;10172;42.054;24.546;2022-09-29T00:01:23;97139.97;;;21.42;71.11
20023;BME280;10172;42.054;24.546;2022-09-29T00:03:48;97145.41;;;20.94;73.58
20023;BME280;10172;42.054;24.546;2022-09-29T00:06:16;97156.00;;;19.45;82.26
20023;BME280;10172;42.054;24.546;2022-09-29T00:08:43;97137.53;;;20.28;78.34
20023;BME280;10172;42.054;24.546;2022-09-29T00:11:14;97142.09;;;20.49;76.71
20023;BME280;10172;42.054;24.546;2022-09-29T00:13:40;97142.59;;;21.29;72.69
20023;BME280;10172;42.054;24.546;2022-09-29T00:16:05;97138.56;;;21.87;70.35
20023;BME280;10172;42.054;24.546;2022-09-29T00:18:32;97135.94;;;21.66;71.41
20023;BME280;10172;42.054;24.546;2022-09-29T00:21:03;97134.69;;;20.01;79.32
20023;BME280;10172;42.054;24.546;2022-09-29T00:23:29;97128.66;;;20.35;77.91
20023;BME280;10172;42.054;24.546;2022-09-29T00:26:08;97129.13;;;21.08;74.50
20023;BME280;10172;42.054;24.546;2022-09-29T00:28:36;97120.31;;;21.68;71.38
20023;BME280;10172;42.054;24.546;2022-09-29T00:31:03;97114.84;;;21.96;69.12
20023;BME280;10172;42.054;24.546;2022-09-29T00:33:31;97128.59;;;22.01;69.51
20023;BME280;10172;42.054;24.546;2022-09-29T00:35:58;97135.75;;;21.68;70.97
20023;BME280;10172;42.054;24.546;2022-09-29T00:38:26;97127.63;;;21.33;73.31
20023;BME280;10172;42.054;24.546;2022-09-29T00:40:52;97125.81;;;21.40;74.62
20023;BME280;10172;42.054;24.546;2022-09-29T00:46:06;97131.28;;;20.28;80.49
20023;BME280;10172;42.054;24.546;2022-09-29T00:48:32;97126.84;;;20.42;80.37
20023;BME280;10172;42.054;24.546;2022-09-29T00:50:58;97116.84;;;20.57;78.80
20023;BME280;10172;42.054;24.546;2022-09-29T00:53:25;97120.72;;;18.66;88.22
20023;BME280;10172;42.054;24.546;2022-09-29T00:56:03;97144.56;;;19.06;86.22
20023;BME280;10172;42.054;24.546;2022-09-29T00:58:48;97140.47;;;19.62;83.44
20023;BME280;10172;42.054;24.546;2022-09-29T01:01:21;97121.91;;;20.24;79.76
20023;BME280;10172;42.054;24.546;2022-09-29T01:03:47;97137.03;;;20.61;78.30
20023;BME280;10172;42.054;24.546;2022-09-29T01:06:31;97147.78;;;18.27;91.67
20023;BME280;10172;42.054;24.546;2022-09-29T01:09:02;97163.59;;;17.99;95.92
20023;BME280;10172;42.054;24.546;2022-09-29T01:11:29;97147.00;;;19.01;88.97
20023;BME280;10172;42.054;24.546;2022-09-29T01:13:55;97159.41;;;18.87;87.90
20023;BME280;10172;42.054;24.546;2022-09-29T01:16:25;97173.31;;;18.31;92.71
20023;BME280;10172;42.054;24.546;2022-09-29T01:18:51;97146.78;;;18.88;89.29
20023;BME280;10172;42.054;24.546;2022-09-29T01:35:39;97204.63;;;19.81;87.60
20023;BME280;10172;42.054;24.546;2022-09-29T01:38:17;97212.34;;;17.49;100.00
20023;BME280;10172;42.054;24.546;2022-09-29T01:46:10;97197.25;;;18.94;92.59
20023;BME280;10172;42.054;24.546;2022-09-29T01:48:46;97197.72;;;18.29;97.13
20023;BME280;10172;42.054;24.546;2022-09-29T01:51:16;97194.22;;;17.90;100.00
20023;BME280;10172;42.054;24.546;2022-09-29T01:53:52;97198.13;;;18.72;94.54
20023;BME280;10172;42.054;24.546;2022-09-29T01:56:47;97190.94;;;19.01;91.72
20023;BME280;10172;42.054;24.546;2022-09-29T01:59:23;97194.53;;;19.31;88.86
20023;BME280;10172;42.054;24.546;2022-09-29T02:01:57;97186.13;;;17.98;97.09
20023;BME280;10172;42.054;24.546;2022-09-29T02:04:27;97179.25;;;18.72;93.73
20023;BME280;10172;42.054;24.546;2022-09-29T02:06:58;97209.69;;;18.27;96.58
20023;BME280;10172;42.054;24.546;2022-09-29T02:09:30;97188.00;;;18.74;93.25
20023;BME280;10172;42.054;24.546;2022-09-29T02:12:00;97189.72;;;19.27;90.07
20023;BME280;10172;42.054;24.546;2022-09-29T02:14:31;97197.78;;;18.44;93.84
20023;BME280;10172;42.054;24.546;2022-09-29T02:17:19;97208.31;;;18.31;96.71
20023;BME280;10172;42.054;24.546;2022-09-29T02:19:48;97184.19;;;19.05;90.75
20023;BME280;10172;42.054;24.546;2022-09-29T02:22:16;97195.88;;;19.50;87.89
20023;BME280;10172;42.054;24.546;2022-09-29T02:24:42;97196.66;;;16.98;100.00
20023;BME280;10172;42.054;24.546;2022-09-29T02:27:08;97192.66;;;18.04;98.12
20023;BME280;10172;42.054;24.546;2022-09-29T02:29:34;97199.25;;;18.77;93.01
20023;BME280;10172;42.054;24.546;2022-09-29T02:32:02;97203.66;;;18.93;91.14
20023;BME280;10172;42.054;24.546;2022-09-29T02:34:34;97208.66;;;18.59;92.89
20023;BME280;10172;42.054;24.546;2022-09-29T02:37:18;97223.06;;;19.26;87.92
20023;BME280;10172;42.054;24.546;2022-09-29T02:48:12;97215.78;;;18.74;90.64
20023;BME280;10172;42.054;24.546;2022-09-29T02:53:46;97219.19;;;16.72;100.00
20023;BME280;10172;42.054;24.546;2022-09-29T02:59:15;97203.97;;;17.36;100.00
20023;BME280;10172;42.054;24.546;2022-09-29T03:01:54;97209.41;;;17.12;100.00
20023;BME280;10172;42.054;24.546;2022-09-29T03:04:24;97208.75;;;16.86;100.00
20023;BME280;10172;42.054;24.546;2022-09-29T03:06:50;97217.91;;;17.40;100.00
20023;BME280;10172;42.054;24.546;2022-09-29T03:09:17;97218.78;;;17.32;100.00
20023;BME280;10172;42.054;24.546;2022-09-29T03:11:42;97201.19;;;17.13;100.00
20023;BME280;10172;42.054;24.546;2022-09-29T03:14:08;97211.63;;;17.71;100.00
20023;BME280;10172;42.054;24.546;2022-09-29T03:16:35;97202.38;;;16.95;100.00
20023;BME280;10172;42.054;24.546;2022-09-29T03:19:02;97209.28;;;17.68;100.00
20023;BME280;10172;42.054;24.546;2022-09-29T03:21:27;97200.41;;;18.29;96.48
20023;BME280;10172;42.054;24.546;2022-09-29T03:23:54;97201.22;;;17.68;100.00
20023;BME280;10172;42.054;24.546;2022-09-29T03:26:19;97199.19;;;16.99;100.00
20023;BME280;10172;42.054;24.546;2022-09-29T03:28:45;97195.84;;;17.68;100.00
20023;BME280;10172;42.054;24.546;2022-09-29T03:31:11;97198.28;;;18.17;98.08
20023;BME280;10172;42.054;24.546;2022-09-29T03:33:37;97207.91;;;17.80;99.84
20023;BME280;10172;42.054;24.546;2022-09-29T03:36:04;97209.91;;;17.07;100.00
20023;BME280;10172;42.054;24.546;2022-09-29T03:38:31;97201.66;;;17.17;100.00
20023;BME280;10172;42.054;24.546;2022-09-29T03:40:57;97208.22;;;17.06;100.00
20023;BME280;10172;42.054;24.546;2022-09-29T03:43:22;97226.09;;;16.17;100.00
20023;BME280;10172;42.054;24.546;2022-09-29T03:45:52;97215.13;;;16.85;100.00
20023;BME280;10172;42.054;24.546;2022-09-29T03:48:19;97206.31;;;17.55;100.00
20023;BME280;10172;42.054;24.546;2022-09-29T03:50:46;97212.06;;;17.20;100.00
20023;BME280;10172;42.054;24.546;2022-09-29T03:53:12;97210.28;;;16.80;100.00
20023;BME280;10172;42.054;24.546;2022-09-29T03:55:38;97206.06;;;16.94;100.00
20023;BME280;10172;42.054;24.546;2022-09-29T03:58:04;97200.03;;;16.92;100.00
20023;BME280;10172;42.054;24.546;2022-09-29T04:00:29;97208.72;;;17.18;100.00
20023;BME280;10172;42.054;24.546;2022-09-29T04:02:55;97204.38;;;17.80;100.00
20023;BME280;10172;42.054;24.546;2022-09-29T04:05:20;97220.78;;;17.93;99.66
20023;BME280;10172;42.054;24.546;2022-09-29T04:07:46;97226.69;;;17.88;99.81
20023;BME280;10172;42.054;24.546;2022-09-29T04:10:11;97223.50;;;18.24;96.21
20023;BME280;10172;42.054;24.546;2022-09-29T04:12:37;97225.78;;;17.49;100.00
20023;BME280;10172;42.054;24.546;2022-09-29T04:15:02;97241.59;;;16.47;100.00
20023;BME280;10172;42.054;24.546;2022-09-29T04:17:28;97228.56;;;16.68;100.00
20023;BME280;10172;42.054;24.546;2022-09-29T04:19:54;97252.47;;;16.22;100.00
20023;BME280;10172;42.054;24.546;2022-09-29T04:22:19;97253.22;;;16.64;100.00
20023;BME280;10172;42.054;24.546;2022-09-29T04:24:46;97269.09;;;16.49;100.00
20023;BME280;10172;42.054;24.546;2022-09-29T04:27:13;97283.91;;;15.70;100.00
20023;BME280;10172;42.054;24.546;2022-09-29T04:29:38;97290.31;;;16.60;100.00
20023;BME280;10172;42.054;24.546;2022-09-29T04:32:04;97286.38;;;16.47;100.00
20023;BME280;10172;42.054;24.546;2022-09-29T04:34:31;97308.28;;;16.18;100.00
20023;BME280;10172;42.054;24.546;2022-09-29T04:36:56;97295.50;;;16.12;100.00
20023;BME280;10172;42.054;24.546;2022-09-29T04:39:22;97286.13;;;16.74;100.00
20023;BME280;10172;42.054;24.546;2022-09-29T04:41:47;97292.03;;;17.10;100.00
20023;BME280;10172;42.054;24.546;2022-09-29T04:44:12;97304.91;;;15.82;100.00
20023;BME280;10172;42.054;24.546;2022-09-29T04:46:38;97282.03;;;16.46;100.00
20023;BME280;10172;42.054;24.546;2022-09-29T04:49:03;97289.00;;;17.37;100.00
20023;BME280;10172;42.054;24.546;2022-09-29T04:51:29;97302.41;;;16.72;100.00
20023;BME280;10172;42.054;24.546;2022-09-29T04:53:56;97308.31;;;16.26;100.00
20023;BME280;10172;42.054;24.546;2022-09-29T04:56:22;97293.50;;;16.72;100.00
20023;BME280;10172;42.054;24.546;2022-09-29T04:58:47;97302.59;;;17.44;100.00
20023;BME280;10172;42.054;24.546;2022-09-29T05:01:13;97307.78;;;16.64;100.00
20023;BME280;10172;42.054;24.546;2022-09-29T05:03:38;97312.94;;;16.08;100.00
20023;BME280;10172;42.054;24.546;2022-09-29T05:06:04;97305.53;;;16.02;100.00
20023;BME280;10172;42.054;24.546;2022-09-29T05:08:30;97298.91;;;17.04;100.00
20023;BME280;10172;42.054;24.546;2022-09-29T05:10:56;97307.44;;;16.67;100.00
20023;BME280;10172;42.054;24.546;2022-09-29T05:13:22;97315.66;;;16.16;100.00
20023;BME280;10172;42.054;24.546;2022-09-29T05:15:48;97310.47;;;16.31;100.00
20023;BME280;10172;42.054;24.546;2022-09-29T05:18:14;97305.66;;;17.08;100.00
20023;BME280;10172;42.054;24.546;2022-09-29T05:20:39;97298.38;;;17.41;100.00
20023;BME280;10172;42.054;24.546;2022-09-29T05:23:05;97299.09;;;17.27;100.00
20023;BME280;10172;42.054;24.546;2022-09-29T05:25:35;97302.09;;;17.40;100.00
20023;BME280;10172;42.054;24.546;2022-09-29T05:28:01;97294.59;;;17.99;100.00
20023;BME280;10172;42.054;24.546;2022-09-29T05:30:26;97286.84;;;17.96;100.00
20023;BME280;10172;42.054;24.546;2022-09-29T05:32:52;97289.66;;;16.83;100.00
20023;BME280;10172;42.054;24.546;2022-09-29T05:35:17;97290.31;;;16.77;100.00
20023;BME280;10172;42.054;24.546;2022-09-29T05:37:44;97287.31;;;17.12;100.00
20023;BME280;10172;42.054;24.546;2022-09-29T05:40:10;97290.66;;;17.46;100.00
20023;BME280;10172;42.054;24.546;2022-09-29T05:42:35;97291.84;;;18.07;100.00
20023;BME280;10172;42.054;24.546;2022-09-29T05:45:01;97292.59;;;18.31;100.00
20023;BME280;10172;42.054;24.546;2022-09-29T05:47:26;97285.06;;;18.58;100.00
20023;BME280;10172;42.054;24.546;2022-09-29T05:49:51;97279.72;;;19.03;97.42
20023;BME280;10172;42.054;24.546;2022-09-29T05:52:17;97274.28;;;18.27;100.00
20023;BME280;10172;42.054;24.546;2022-09-29T05:54:42;97269.38;;;18.30;100.00
20023;BME280;10172;42.054;24.546;2022-09-29T05:57:08;97270.88;;;18.94;99.94
20023;BME280;10172;42.054;24.546;2022-09-29T05:59:33;97268.69;;;19.13;96.72
20023;BME280;10172;42.054;24.546;2022-09-29T06:01:58;97261.25;;;19.15;95.69
20023;BME280;10172;42.054;24.546;2022-09-29T06:04:24;97261.72;;;19.18;96.33
20023;BME280;10172;42.054;24.546;2022-09-29T06:06:49;97257.09;;;18.89;98.08
20023;BME280;10172;42.054;24.546;2022-09-29T06:09:15;97257.75;;;19.29;97.42
20023;BME280;10172;42.054;24.546;2022-09-29T06:11:40;97252.75;;;19.92;93.40
20023;BME280;10172;42.054;24.546;2022-09-29T06:14:06;97255.50;;;20.13;90.09
20023;BME280;10172;42.054;24.546;2022-09-29T06:16:32;97252.31;;;20.39;87.42
20023;BME280;10172;42.054;24.546;2022-09-29T06:18:59;97258.09;;;20.72;85.95
20023;BME280;10172;42.054;24.546;2022-09-29T06:21:26;97252.53;;;20.73;84.83
20023;BME280;10172;42.054;24.546;2022-09-29T06:23:56;97252.81;;;21.06;82.10
20023;BME280;10172;42.054;24.546;2022-09-29T06:26:24;97257.69;;;21.38;80.83
20023;BME280;10172;42.054;24.546;2022-09-29T06:28:49;97263.19;;;21.79;77.31
20023;BME280;10172;42.054;24.546;2022-09-29T06:31:17;97271.75;;;21.49;78.08
20023;BME280;10172;42.054;24.546;2022-09-29T06:33:44;97281.28;;;21.44;79.08
20023;BME280;10172;42.054;24.546;2022-09-29T06:39:13;97278.38;;;21.74;77.49
20023;BME280;10172;42.054;24.546;2022-09-29T06:41:39;97278.09;;;21.90;78.52
20023;BME280;10172;42.054;24.546;2022-09-29T06:44:05;97272.91;;;21.67;78.96
20023;BME280;10172;42.054;24.546;2022-09-29T06:46:32;97273.22;;;21.79;76.23
20023;BME280;10172;42.054;24.546;2022-09-29T06:48:57;97284.69;;;22.15;75.98
20023;BME280;10172;42.054;24.546;2022-09-29T06:51:24;97281.94;;;22.49;73.19
20023;BME280;10172;42.054;24.546;2022-09-29T06:53:50;97275.31;;;22.58;72.15
20023;BME280;10172;42.054;24.546;2022-09-29T06:56:17;97270.63;;;22.80;71.34
20023;BME280;10172;42.054;24.546;2022-09-29T06:58:44;97273.25;;;22.13;74.99
20023;BME280;10172;42.054;24.546;2022-09-29T07:01:09;97262.31;;;22.95;71.98
20023;BME280;10172;42.054;24.546;2022-09-29T07:03:36;97264.59;;;22.91;70.79
20023;BME280;10172;42.054;24.546;2022-09-29T07:06:06;97263.84;;;23.56;69.86
20023;BME280;10172;42.054;24.546;2022-09-29T07:08:31;97275.50;;;23.90;69.18
20023;BME280;10172;42.054;24.546;2022-09-29T07:10:59;97281.34;;;24.13;67.99
20023;BME280;10172;42.054;24.546;2022-09-29T07:13:24;97277.13;;;24.30;66.05
20023;BME280;10172;42.054;24.546;2022-09-29T07:15:51;97274.16;;;24.38;64.49
20023;BME280;10172;42.054;24.546;2022-09-29T07:18:17;97274.97;;;24.38;63.76
20023;BME280;10172;42.054;24.546;2022-09-29T07:20:43;97272.56;;;23.98;66.01
20023;BME280;10172;42.054;24.546;2022-09-29T07:23:08;97271.13;;;23.89;67.13
20023;BME280;10172;42.054;24.546;2022-09-29T07:25:34;97277.34;;;24.02;66.34
20023;BME280;10172;42.054;24.546;2022-09-29T07:28:00;97279.28;;;23.75;67.38
20023;BME280;10172;42.054;24.546;2022-09-29T07:30:26;97279.28;;;23.56;68.14
20023;BME280;10172;42.054;24.546;2022-09-29T07:32:52;97278.44;;;23.68;67.08
20023;BME280;10172;42.054;24.546;2022-09-29T07:35:20;97276.75;;;23.08;69.55
20023;BME280;10172;42.054;24.546;2022-09-29T07:37:55;97297.66;;;23.87;67.87
20023;BME280;10172;42.054;24.546;2022-09-29T07:40:21;97297.66;;;23.80;68.42
20023;BME280;10172;42.054;24.546;2022-09-29T07:42:48;97300.59;;;23.78;69.65
20023;BME280;10172;42.054;24.546;2022-09-29T07:45:14;97311.03;;;23.49;69.83
20023;BME280;10172;42.054;24.546;2022-09-29T07:47:40;97317.94;;;23.64;69.03
20023;BME280;10172;42.054;24.546;2022-09-29T07:50:05;97315.00;;;23.53;69.27
20023;BME280;10172;42.054;24.546;2022-09-29T07:52:31;97324.53;;;23.22;69.90
20023;BME280;10172;42.054;24.546;2022-09-29T07:54:56;97336.72;;;23.59;68.97
20023;BME280;10172;42.054;24.546;2022-09-29T07:57:22;97340.25;;;23.93;67.07
20023;BME280;10172;42.054;24.546;2022-09-29T07:59:47;97334.38;;;24.35;65.81
20023;BME280;10172;42.054;24.546;2022-09-29T08:02:13;97341.50;;;24.29;65.36
20023;BME280;10172;42.054;24.546;2022-09-29T08:04:39;97340.28;;;24.89;63.59
20023;BME280;10172;42.054;24.546;2022-09-29T08:07:04;97334.38;;;24.35;65.01
20023;BME280;10172;42.054;24.546;2022-09-29T08:09:30;97346.84;;;24.62;64.48
20023;BME280;10172;42.054;24.546;2022-09-29T08:11:55;97343.00;;;24.83;63.25
20023;BME280;10172;42.054;24.546;2022-09-29T08:14:20;97347.13;;;24.98;62.28
20023;BME280;10172;42.054;24.546;2022-09-29T08:16:47;97343.63;;;25.23;61.31
20023;BME280;10172;42.054;24.546;2022-09-29T08:19:12;97343.44;;;24.73;62.63
20023;BME280;10172;42.054;24.546;2022-09-29T08:21:38;97342.94;;;25.03;61.77
20023;BME280;10172;42.054;24.546;2022-09-29T08:24:05;97350.06;;;24.97;62.25
20023;BME280;10172;42.054;24.546;2022-09-29T08:26:33;97343.25;;;24.81;63.37
20023;BME280;10172;42.054;24.546;2022-09-29T08:29:02;97346.88;;;24.49;63.35
20023;BME280;10172;42.054;24.546;2022-09-29T08:31:28;97347.81;;;24.74;64.74
20023;BME280;10172;42.054;24.546;2022-09-29T08:33:55;97345.72;;;25.27;61.47
20023;BME280;10172;42.054;24.546;2022-09-29T08:36:22;97334.84;;;25.21;62.71
20023;BME280;10172;42.054;24.546;2022-09-29T08:38:50;97340.97;;;25.16;62.80
20023;BME280;10172;42.054;24.546;2022-09-29T08:46:48;97336.69;;;25.65;62.10
20023;BME280;10172;42.054;24.546;2022-09-29T08:49:21;97337.56;;;26.08;59.54
20023;BME280;10172;42.054;24.546;2022-09-29T08:51:51;97322.28;;;26.07;58.96
20023;BME280;10172;42.054;24.546;2022-09-29T08:54:33;97323.69;;;25.91;60.17
20023;BME280;10172;42.054;24.546;2022-09-29T08:57:00;97316.50;;;26.58;57.27
20023;BME280;10172;42.054;24.546;2022-09-29T08:59:28;97317.09;;;25.49;60.07
20023;BME280;10172;42.054;24.546;2022-09-29T09:05:06;97324.19;;;25.82;60.47
20023;BME280;10172;42.054;24.546;2022-09-29T09:10:43;97327.69;;;25.89;58.89
20023;BME280;10172;42.054;24.546;2022-09-29T09:13:25;97316.97;;;26.91;56.16
20023;BME280;10172;42.054;24.546;2022-09-29T09:18:59;97309.50;;;27.16;55.35
20023;BME280;10172;42.054;24.546;2022-09-29T09:21:42;97307.84;;;27.68;54.23
20023;BME280;10172;42.054;24.546;2022-09-29T09:26:46;97299.53;;;26.74;57.70
20023;BME280;10172;42.054;24.546;2022-09-29T09:31:52;97292.28;;;26.86;57.67
20023;BME280;10172;42.054;24.546;2022-09-29T09:36:47;97282.19;;;27.16;57.86
20023;BME280;10172;42.054;24.546;2022-09-29T09:39:20;97285.91;;;26.92;57.73
20023;BME280;10172;42.054;24.546;2022-09-29T09:41:51;97292.09;;;26.99;57.65
20023;BME280;10172;42.054;24.546;2022-09-29T09:44:26;97299.09;;;26.59;59.79
20023;BME280;10172;42.054;24.546;2022-09-29T09:46:57;97291.66;;;26.48;60.50
20023;BME280;10172;42.054;24.546;2022-09-29T09:54:37;97303.94;;;26.75;59.31
20023;BME280;10172;42.054;24.546;2022-09-29T10:02:46;97315.88;;;26.74;59.24
20023;BME280;10172;42.054;24.546;2022-09-29T10:05:17;97314.06;;;27.04;57.70
20023;BME280;10172;42.054;24.546;2022-09-29T10:07:44;97315.13;;;27.33;56.62
20023;BME280;10172;42.054;24.546;2022-09-29T10:10:21;97322.03;;;27.36;56.19
20023;BME280;10172;42.054;24.546;2022-09-29T10:12:54;97310.84;;;27.37;55.81
20023;BME280;10172;42.054;24.546;2022-09-29T10:15:28;97305.34;;;27.44;53.89
20023;BME280;10172;42.054;24.546;2022-09-29T10:18:05;97301.19;;;27.41;54.38
20023;BME280;10172;42.054;24.546;2022-09-29T10:20:37;97311.34;;;27.75;53.63
20023;BME280;10172;42.054;24.546;2022-09-29T10:23:38;97317.00;;;25.87;58.86
20023;BME280;10172;42.054;24.546;2022-09-29T10:26:10;97317.81;;;26.37;58.11
20023;BME280;10172;42.054;24.546;2022-09-29T10:31:27;97307.72;;;27.22;53.13
20023;BME280;10172;42.054;24.546;2022-09-29T10:33:56;97315.88;;;27.10;54.72
20023;BME280;10172;42.054;24.546;2022-09-29T10:36:25;97317.69;;;27.28;53.96
20023;BME280;10172;42.054;24.546;2022-09-29T10:38:52;97309.28;;;27.29;53.30
20023;BME280;10172;42.054;24.546;2022-09-29T10:41:17;97313.13;;;26.81;54.64
20023;BME280;10172;42.054;24.546;2022-09-29T10:43:45;97308.72;;;27.09;54.01
20023;BME280;10172;42.054;24.546;2022-09-29T10:54:24;97294.81;;;26.99;55.04
20023;BME280;10172;42.054;24.546;2022-09-29T10:56:50;97298.13;;;27.49;53.66
20023;BME280;10172;42.054;24.546;2022-09-29T10:59:17;97286.59;;;27.59;53.16
20023;BME280;10172;42.054;24.546;2022-09-29T11:01:49;97278.06;;;27.67;53.05
20023;BME280;10172;42.054;24.546;2022-09-29T11:04:23;97279.25;;;27.71;53.36
20023;BME280;10172;42.054;24.546;2022-09-29T11:06:50;97271.50;;;27.56;53.37
20023;BME280;10172;42.054;24.546;2022-09-29T11:14:31;97247.94;;;28.08;51.30
20023;BME280;10172;42.054;24.546;2022-09-29T11:17:26;97270.31;;;28.68;50.13
20023;BME280;10172;42.054;24.546;2022-09-29T11:19:53;97254.75;;;28.45;49.68
20023;BME280;10172;42.054;24.546;2022-09-29T11:31:21;97273.34;;;28.20;50.24
20023;BME280;10172;42.054;24.546;2022-09-29T11:37:03;97258.44;;;28.39;50.01
20023;BME280;10172;42.054;24.546;2022-09-29T11:45:03;97267.00;;;28.55;48.92
20023;BME280;10172;42.054;24.546;2022-09-29T11:47:52;97260.03;;;28.12;49.80
20023;BME280;10172;42.054;24.546;2022-09-29T11:50:48;97244.09;;;27.86;51.32
20023;BME280;10172;42.054;24.546;2022-09-29T11:56:25;97244.31;;;28.82;49.05
20023;BME280;10172;42.054;24.546;2022-09-29T12:16:20;97229.84;;;29.27;46.78
20023;BME280;10172;42.054;24.546;2022-09-29T12:21:46;97243.56;;;29.15;47.32
20023;BME280;10172;42.054;24.546;2022-09-29T12:24:18;97239.72;;;29.44;46.89
20023;BME280;10172;42.054;24.546;2022-09-29T12:26:47;97237.34;;;29.03;45.95
20023;BME280;10172;42.054;24.546;2022-09-29T12:32:28;97231.09;;;29.52;45.84
20023;BME280;10172;42.054;24.546;2022-09-29T12:38:01;97234.78;;;30.30;43.51
20023;BME280;10172;42.054;24.546;2022-09-29T12:40:36;97223.94;;;30.01;43.67
20023;BME280;10172;42.054;24.546;2022-09-29T12:48:43;97247.81;;;29.68;44.71
20023;BME280;10172;42.054;24.546;2022-09-29T12:51:29;97239.28;;;29.81;43.08
20023;BME280;10172;42.054;24.546;2022-09-29T12:54:33;97232.84;;;29.58;45.00
20023;BME280;10172;42.054;24.546;2022-09-29T13:01:55;97230.69;;;29.94;43.36
20023;BME280;10172;42.054;24.546;2022-09-29T13:29:14;97225.44;;;28.69;46.99
20023;BME280;10172;42.054;24.546;2022-09-29T13:31:44;97221.47;;;28.77;47.13
20023;BME280;10172;42.054;24.546;2022-09-29T13:36:45;97227.34;;;28.69;47.04
20023;BME280;10172;42.054;24.546;2022-09-29T13:39:26;97219.78;;;28.87;47.19
20023;BME280;10172;42.054;24.546;2022-09-29T13:41:55;97218.13;;;28.86;47.26
20023;BME280;10172;42.054;24.546;2022-09-29T13:44:27;97229.56;;;28.83;47.55
20023;BME280;10172;42.054;24.546;2022-09-29T13:46:54;97228.28;;;29.02;47.33
20023;BME280;10172;42.054;24.546;2022-09-29T13:57:01;97237.66;;;29.35;47.86
20023;BME280;10172;42.054;24.546;2022-09-29T13:59:29;97249.88;;;28.47;48.34
20023;BME280;10172;42.054;24.546;2022-09-29T14:01:55;97243.06;;;28.62;47.64
20023;BME280;10172;42.054;24.546;2022-09-29T14:15:38;97228.72;;;29.11;47.82
20023;BME280;10172;42.054;24.546;2022-09-29T14:18:17;97241.41;;;29.00;48.55
20023;BME280;10172;42.054;24.546;2022-09-29T14:21:02;97244.56;;;28.81;51.20
20023;BME280;10172;42.054;24.546;2022-09-29T14:23:49;97246.34;;;29.03;51.24
20023;BME280;10172;42.054;24.546;2022-09-29T14:26:44;97241.22;;;29.35;51.35
20023;BME280;10172;42.054;24.546;2022-09-29T14:29:17;97235.53;;;28.80;49.78
20023;BME280;10172;42.054;24.546;2022-09-29T14:31:50;97239.66;;;28.83;48.69
20023;BME280;10172;42.054;24.546;2022-09-29T14:34:19;97240.06;;;29.03;48.91
20023;BME280;10172;42.054;24.546;2022-09-29T14:36:48;97246.06;;;29.17;50.60
20023;BME280;10172;42.054;24.546;2022-09-29T14:39:16;97234.03;;;29.18;50.29
20023;BME280;10172;42.054;24.546;2022-09-29T14:41:44;97234.66;;;29.36;49.11
20023;BME280;10172;42.054;24.546;2022-09-29T14:44:26;97236.00;;;29.50;47.53
20023;BME280;10172;42.054;24.546;2022-09-29T14:56:45;97237.75;;;28.43;52.15
20023;BME280;10172;42.054;24.546;2022-09-29T15:02:09;97234.22;;;27.50;60.27
20023;BME280;10172;42.054;24.546;2022-09-29T15:04:43;97242.19;;;27.52;57.24
20023;BME280;10172;42.054;24.546;2022-09-29T15:07:15;97242.34;;;27.27;56.65
20023;BME280;10172;42.054;24.546;2022-09-29T15:09:48;97250.06;;;26.70;57.81
20023;BME280;10172;42.054;24.546;2022-09-29T15:12:15;97256.22;;;27.25;56.66
20023;BME280;10172;42.054;24.546;2022-09-29T15:14:44;97248.50;;;26.27;58.18
20023;BME280;10172;42.054;24.546;2022-09-29T15:20:15;97246.69;;;26.21;51.19
20023;BME280;10172;42.054;24.546;2022-09-29T15:25:25;97251.47;;;26.91;49.25
20023;BME280;10172;42.054;24.546;2022-09-29T15:28:03;97245.25;;;26.18;51.56
20023;BME280;10172;42.054;24.546;2022-09-29T15:30:31;97249.69;;;26.12;52.55
20023;BME280;10172;42.054;24.546;2022-09-29T15:35:45;97241.72;;;25.93;52.98
20023;BME280;10172;42.054;24.546;2022-09-29T15:38:36;97258.28;;;25.91;52.55
20023;BME280;10172;42.054;24.546;2022-09-29T15:44:12;97243.09;;;25.84;51.61
20023;BME280;10172;42.054;24.546;2022-09-29T15:46:50;97247.63;;;25.90;50.77
20023;BME280;10172;42.054;24.546;2022-09-29T15:49:49;97242.28;;;25.77;50.98
20023;BME280;10172;42.054;24.546;2022-09-29T15:52:16;97246.66;;;26.02;50.83
20023;BME280;10172;42.054;24.546;2022-09-29T15:54:45;97245.97;;;25.89;50.24
20023;BME280;10172;42.054;24.546;2022-09-29T15:57:44;97243.34;;;26.00;49.53
20023;BME280;10172;42.054;24.546;2022-09-29T16:05:32;97235.91;;;25.40;50.39
20023;BME280;10172;42.054;24.546;2022-09-29T16:08:03;97251.28;;;25.59;50.42
20023;BME280;10172;42.054;24.546;2022-09-29T16:10:35;97252.59;;;25.50;50.94
20023;BME280;10172;42.054;24.546;2022-09-29T16:13:05;97248.75;;;25.33;51.01
20023;BME280;10172;42.054;24.546;2022-09-29T16:16:02;97254.78;;;25.35;50.72
20023;BME280;10172;42.054;24.546;2022-09-29T16:21:12;97271.47;;;25.45;50.82
20023;BME280;10172;42.054;24.546;2022-09-29T16:23:47;97272.34;;;25.39;51.21
20023;BME280;10172;42.054;24.546;2022-09-29T16:31:29;97270.25;;;25.66;50.38
20023;BME280;10172;42.054;24.546;2022-09-29T16:33:58;97277.53;;;25.47;50.72
20023;BME280;10172;42.054;24.546;2022-09-29T16:36:27;97280.94;;;25.36;50.39
20023;BME280;10172;42.054;24.546;2022-09-29T16:38:56;97295.56;;;25.10;51.48
20023;BME280;10172;42.054;24.546;2022-09-29T16:46:50;97285.63;;;24.98;52.16
20023;BME280;10172;42.054;24.546;2022-09-29T16:49:27;97291.59;;;25.06;52.15
20023;BME280;10172;42.054;24.546;2022-09-29T16:54:50;97307.25;;;25.17;52.47
20023;BME280;10172;42.054;24.546;2022-09-29T16:59:55;97313.91;;;24.77;53.87
20023;BME280;10172;42.054;24.546;2022-09-29T17:02:22;97310.84;;;25.49;51.79